createdAt,value
2023-03-21T04:46:45.577Z,664.95
2023-03-21T04:49:12.352Z,663.05
2023-03-21T04:51:39.804Z,659.20
2023-03-21T04:54:06.711Z,670.35
2023-03-21T04:56:34.151Z,653.83
2023-03-21T04:59:07.075Z,665.53
2023-03-21T05:01:34.105Z,666.47
2023-03-21T05:04:02.213Z,669.65
2023-03-21T05:06:29.049Z,671.05
2023-03-21T05:09:00.093Z,668.93
2023-03-21T05:11:28.323Z,668.42
2023-03-21T05:13:54.999Z,665.45
2023-03-21T05:16:25.465Z,666.63
2023-03-21T05:18:55.498Z,661.73
2023-03-21T05:21:22.828Z,665.70
2023-03-21T05:23:54.845Z,664.67
2023-03-21T05:26:23.176Z,668.67
2023-03-21T05:28:50.473Z,657.88
2023-03-21T05:31:18.474Z,662.80
2023-03-21T05:33:45.864Z,668.83
2023-03-21T05:36:13.682Z,664.72
2023-03-21T05:38:45.397Z,664.38
2023-03-21T05:41:19.117Z,662.78
2023-03-21T05:43:45.923Z,655.10
2023-03-21T05:46:12.615Z,661.35
2023-03-21T05:48:39.325Z,656.35
2023-03-21T05:51:06.255Z,655.90
2023-03-21T05:53:32.872Z,656.95
2023-03-21T05:55:59.542Z,658.53
2023-03-21T05:58:26.266Z,655.95
2023-03-21T06:00:52.888Z,662.83
2023-03-21T06:03:19.518Z,669.47
2023-03-21T06:05:46.310Z,659.75
2023-03-21T06:08:13.038Z,659.47
2023-03-21T06:10:39.755Z,661.20
2023-03-21T06:13:06.400Z,656.97
2023-03-21T06:15:33.194Z,656.63
2023-03-21T06:17:59.854Z,660.13
2023-03-21T06:20:26.504Z,662.92
2023-03-21T06:22:53.149Z,662.57
2023-03-21T06:25:20.153Z,662.42
2023-03-21T06:27:46.763Z,662.00
2023-03-21T06:30:14.082Z,673.97
2023-03-21T06:32:40.689Z,666.93
2023-03-21T06:35:07.564Z,665.08
2023-03-21T06:37:34.272Z,670.13
2023-03-21T06:40:01.091Z,668.00
2023-03-21T06:42:27.767Z,675.17
2023-03-21T06:44:54.399Z,684.88
2023-03-21T06:47:21.040Z,678.58
2023-03-21T06:49:47.707Z,689.45
2023-03-21T06:52:14.335Z,699.85
2023-03-21T06:54:40.971Z,708.85
2023-03-21T06:57:07.736Z,701.15
2023-03-21T06:59:34.409Z,711.58
2023-03-21T07:02:01.281Z,724.40
2023-03-21T07:04:28.155Z,720.92
2023-03-21T07:06:54.854Z,725.65
2023-03-21T07:09:24.553Z,755.30
2023-03-21T07:11:53.479Z,760.92
2023-03-21T07:14:20.274Z,747.67
2023-03-21T07:16:47.065Z,769.15
2023-03-21T07:19:14.038Z,761.22
2023-03-21T07:21:40.802Z,765.22
2023-03-21T07:24:07.706Z,772.58
2023-03-21T07:26:34.346Z,777.35
2023-03-21T07:29:00.958Z,779.23
2023-03-21T07:31:27.685Z,786.80
2023-03-21T07:33:54.353Z,789.75
2023-03-21T07:36:21.306Z,798.78
2023-03-21T07:38:47.946Z,796.60
2023-03-21T07:43:46.469Z,808.55
2023-03-21T07:46:13.249Z,812.55
2023-03-21T07:48:39.930Z,817.80
2023-03-21T07:51:06.945Z,818.95
2023-03-21T07:53:33.700Z,825.20
2023-03-21T07:56:00.313Z,822.63
2023-03-21T07:58:28.405Z,830.10
2023-03-21T08:00:56.598Z,838.47
2023-03-21T08:03:24.048Z,856.67
2023-03-21T08:05:51.048Z,879.00
2023-03-21T08:08:17.998Z,902.10
2023-03-21T08:10:44.751Z,928.90
2023-03-21T08:13:11.957Z,949.45
2023-03-21T08:15:42.303Z,960.72
2023-03-21T08:18:10.126Z,989.80
2023-03-21T08:20:37.332Z,999.90
2023-03-21T08:23:04.244Z,999.90
2023-03-21T08:25:31.370Z,999.90
2023-03-21T08:27:58.043Z,999.90
2023-03-21T08:30:28.073Z,999.90
2023-03-21T08:33:01.364Z,999.90
2023-03-21T08:35:29.443Z,999.90
2023-03-21T08:37:56.101Z,999.90
2023-03-21T08:40:22.763Z,999.90
2023-03-21T08:42:49.515Z,999.90
2023-03-21T08:45:17.615Z,999.90
2023-03-21T08:47:44.465Z,999.90
2023-03-21T08:50:14.572Z,999.90
2023-03-21T08:52:41.457Z,999.90
2023-03-21T08:55:09.108Z,999.90
2023-03-21T08:57:36.080Z,999.90
2023-03-21T09:00:12.126Z,999.90
2023-03-21T09:02:39.161Z,999.90
2023-03-21T09:05:07.596Z,999.90
2023-03-21T09:07:37.525Z,999.90
2023-03-21T09:10:20.225Z,999.90
2023-03-21T09:12:48.525Z,999.90
2023-03-21T09:15:15.230Z,999.90
2023-03-21T09:17:48.975Z,999.90
2023-03-21T09:20:18.737Z,999.90
2023-03-21T09:22:50.318Z,999.90
2023-03-21T09:25:17.742Z,999.90
2023-03-21T09:27:45.818Z,999.90
2023-03-21T09:30:17.141Z,991.58
2023-03-21T09:32:48.233Z,987.10
2023-03-21T09:35:19.107Z,979.80
2023-03-21T09:37:47.244Z,987.70
2023-03-21T09:40:52.976Z,977.90
2023-03-21T09:43:42.106Z,989.17
2023-03-21T09:46:25.082Z,986.17
2023-03-21T09:49:09.756Z,999.90
2023-03-21T09:51:46.295Z,999.90
2023-03-21T09:54:21.283Z,999.90
2023-03-21T09:56:50.759Z,999.90
2023-03-21T09:59:40.142Z,999.90
2023-03-21T10:02:32.111Z,999.90
2023-03-21T10:05:11.916Z,999.90
2023-03-21T10:07:42.767Z,999.90
2023-03-21T10:10:17.940Z,999.90
2023-03-21T10:12:47.137Z,999.90
2023-03-21T10:15:20.518Z,999.90
2023-03-21T10:18:05.536Z,999.90
2023-03-21T10:20:34.682Z,999.90
2023-03-21T10:23:05.256Z,991.50
2023-03-21T10:25:40.293Z,984.13
2023-03-21T10:28:14.974Z,975.35
2023-03-21T10:31:04.513Z,968.88
2023-03-21T10:33:37.641Z,960.55
2023-03-21T10:36:16.315Z,962.08
2023-03-21T10:39:14.910Z,960.85
2023-03-21T10:41:41.760Z,963.25
2023-03-21T10:44:14.901Z,965.40
2023-03-21T10:46:59.223Z,962.85
2023-03-21T10:49:26.667Z,964.90
2023-03-21T10:51:57.862Z,961.60
2023-03-21T10:54:29.894Z,964.05
2023-03-21T10:57:05.807Z,969.87
2023-03-21T10:59:40.495Z,962.88
2023-03-21T11:02:14.533Z,968.53
2023-03-21T11:04:43.640Z,976.05
2023-03-21T11:07:14.321Z,975.17
2023-03-21T11:09:48.237Z,975.60
2023-03-21T11:12:17.771Z,978.80
2023-03-21T11:14:49.158Z,973.60
2023-03-21T11:17:18.511Z,972.55
2023-03-21T11:20:11.262Z,966.50
2023-03-21T11:22:42.230Z,961.73
2023-03-21T11:25:19.774Z,961.85
2023-03-21T11:27:54.873Z,958.05
2023-03-21T11:30:24.882Z,968.90
2023-03-21T11:32:55.560Z,969.67
2023-03-21T11:35:25.346Z,968.85
2023-03-21T11:37:54.716Z,970.95
2023-03-21T11:40:26.045Z,975.53
2023-03-21T11:43:24.442Z,976.28
2023-03-21T11:46:24.353Z,976.92
2023-03-21T11:48:51.295Z,971.08
2023-03-21T11:51:44.893Z,967.03
2023-03-21T11:54:30.372Z,971.60
2023-03-21T11:57:07.675Z,967.05
2023-03-21T11:59:42.413Z,969.88
2023-03-21T12:02:43.497Z,967.80
2023-03-21T12:05:32.377Z,972.53
2023-03-21T12:08:17.697Z,972.72
2023-03-21T12:11:16.538Z,971.70
2023-03-21T12:13:51.376Z,972.70
2023-03-21T12:16:54.718Z,974.42
2023-03-21T12:19:30.282Z,973.42
2023-03-21T12:22:24.973Z,973.95
2023-03-21T12:24:56.803Z,976.38
2023-03-21T12:27:37.521Z,982.50
2023-03-21T12:30:18.793Z,981.22
2023-03-21T12:33:05.777Z,983.80
2023-03-21T12:36:05.279Z,985.67
2023-03-21T12:39:01.759Z,991.20
2023-03-21T12:41:54.484Z,988.42
2023-03-21T12:44:24.271Z,996.50
2023-03-21T12:47:02.286Z,994.15
2023-03-21T12:49:38.488Z,991.08
2023-03-21T12:52:11.977Z,989.22
2023-03-21T12:54:49.325Z,990.42
2023-03-21T12:57:38.305Z,991.90
2023-03-21T13:00:22.799Z,986.38
2023-03-21T13:02:55.433Z,986.45
2023-03-21T13:05:45.044Z,984.85
2023-03-21T13:08:18.221Z,981.30
2023-03-21T13:10:46.224Z,978.75
2023-03-21T13:13:36.540Z,980.08
2023-03-21T13:16:20.187Z,975.05
2023-03-21T13:19:16.110Z,977.88
2023-03-21T13:21:52.382Z,989.05
2023-03-21T13:24:27.193Z,989.13
2023-03-21T13:27:16.430Z,989.60
2023-03-21T13:29:49.496Z,989.75
2023-03-21T13:32:39.571Z,986.35
2023-03-21T13:35:09.748Z,986.95
2023-03-21T13:37:42.135Z,986.78
2023-03-21T13:40:25.954Z,991.63
2023-03-21T13:43:00.498Z,985.00
2023-03-21T13:45:45.178Z,981.28
2023-03-21T13:48:32.140Z,981.30
2023-03-21T13:51:03.433Z,987.00
2023-03-21T13:53:32.099Z,982.40
2023-03-21T13:56:06.612Z,979.70
2023-03-21T13:58:37.639Z,983.15
2023-03-21T14:01:21.218Z,980.17
2023-03-21T14:03:48.226Z,982.42
2023-03-21T14:06:18.152Z,981.05
2023-03-21T14:08:47.344Z,984.08
2023-03-21T14:11:17.689Z,982.45
2023-03-21T14:13:51.406Z,979.78
2023-03-21T14:16:20.382Z,984.47
2023-03-21T14:18:59.885Z,986.20
2023-03-21T14:21:31.152Z,973.85
2023-03-21T14:23:57.990Z,975.75
2023-03-21T14:26:27.417Z,975.50
2023-03-21T14:28:54.727Z,969.72
2023-03-21T14:31:21.685Z,974.97
2023-03-21T14:33:54.005Z,972.15
2023-03-21T14:36:28.551Z,965.40
2023-03-21T14:39:17.365Z,956.03
2023-03-21T14:41:52.673Z,958.17
2023-03-21T14:44:27.782Z,957.90
2023-03-21T14:47:03.909Z,952.72
2023-03-21T14:49:32.962Z,956.40
2023-03-21T14:52:07.411Z,957.25
2023-03-21T14:54:34.494Z,949.45
2023-03-21T14:57:04.765Z,944.45
2023-03-21T14:59:35.428Z,946.50
2023-03-21T15:02:11.906Z,944.25
2023-03-21T15:04:38.696Z,943.47
2023-03-21T15:07:07.728Z,942.22
2023-03-21T15:09:35.629Z,947.47
2023-03-21T15:12:08.543Z,946.85
2023-03-21T15:14:36.672Z,950.78
2023-03-21T15:17:05.875Z,948.20
2023-03-21T15:19:35.435Z,956.80
2023-03-21T15:22:12.932Z,947.60
2023-03-21T15:24:45.122Z,954.67
2023-03-21T15:27:18.579Z,952.15
2023-03-21T15:29:46.530Z,955.78
2023-03-21T15:32:17.519Z,957.20
2023-03-21T15:34:44.732Z,956.83
2023-03-21T15:37:33.426Z,961.97
2023-03-21T15:40:30.971Z,957.90
2023-03-21T15:43:20.317Z,948.83
2023-03-21T15:45:56.617Z,947.33
2023-03-21T15:48:28.633Z,948.00
2023-03-21T15:51:03.390Z,946.47
2023-03-21T15:53:33.639Z,940.15
2023-03-21T15:56:02.006Z,944.70
2023-03-21T15:58:35.941Z,943.03
2023-03-21T16:01:06.532Z,951.85
2023-03-21T16:03:38.121Z,946.15
2023-03-21T16:06:17.260Z,951.60
2023-03-21T16:08:50.435Z,948.95
2023-03-21T16:11:25.452Z,951.13
2023-03-21T16:13:53.523Z,947.13
2023-03-21T16:16:26.432Z,948.88
2023-03-21T16:18:54.870Z,949.95
2023-03-21T16:21:24.080Z,951.22
2023-03-21T16:23:51.057Z,956.20
2023-03-21T16:26:21.649Z,954.25
2023-03-21T16:28:49.293Z,954.33
2023-03-21T16:31:19.160Z,944.57
2023-03-21T16:33:46.437Z,946.30
2023-03-21T16:36:30.665Z,950.38
2023-03-21T16:38:58.140Z,951.35
2023-03-21T16:41:27.158Z,940.77
2023-03-21T16:43:53.899Z,950.83
2023-03-21T16:46:26.192Z,941.30
2023-03-21T16:48:57.731Z,941.03
2023-03-21T16:51:30.456Z,947.28
2023-03-21T16:53:57.841Z,950.17
2023-03-21T16:56:31.952Z,942.20
2023-03-21T16:58:58.873Z,929.95
2023-03-21T17:01:25.920Z,934.80
2023-03-21T17:03:53.543Z,930.90
2023-03-21T17:06:24.207Z,930.22
2023-03-21T17:08:51.578Z,929.80
2023-03-21T17:11:20.697Z,929.00
2023-03-21T17:13:48.812Z,923.60
2023-03-21T17:16:18.389Z,920.78
2023-03-21T17:18:45.107Z,916.85
2023-03-21T17:21:26.553Z,921.65
2023-03-21T17:23:54.196Z,916.05
2023-03-21T17:26:27.395Z,915.63
2023-03-21T17:28:56.663Z,916.65
2023-03-21T17:31:25.252Z,908.92
2023-03-21T17:33:52.075Z,908.10
2023-03-21T17:36:30.167Z,908.13
2023-03-21T17:38:57.835Z,903.55
2023-03-21T17:41:24.887Z,895.10
2023-03-21T17:43:51.696Z,890.23
2023-03-21T17:46:22.921Z,890.10
2023-03-21T17:48:50.261Z,891.50
2023-03-21T17:51:17.671Z,891.42
2023-03-21T17:53:45.662Z,877.67
2023-03-21T17:56:32.130Z,891.30
2023-03-21T17:59:05.288Z,886.53
2023-03-21T18:01:32.027Z,888.53
2023-03-21T18:04:02.072Z,889.40
2023-03-21T18:06:28.767Z,880.90
2023-03-21T18:08:55.521Z,881.63
2023-03-21T18:11:24.379Z,881.53
2023-03-21T18:13:59.450Z,888.55
2023-03-21T18:16:33.422Z,888.63
2023-03-21T18:19:00.185Z,883.07
2023-03-21T18:21:32.141Z,887.97
2023-03-21T18:23:59.423Z,889.63
2023-03-21T18:26:26.142Z,889.55
2023-03-21T18:29:36.632Z,887.20
2023-03-21T18:31:40.253Z,889.05
2023-03-21T18:34:06.961Z,885.30
2023-03-21T18:36:34.093Z,882.08
2023-03-21T18:39:03.233Z,878.28
2023-03-21T18:41:30.531Z,879.28
2023-03-21T18:44:02.778Z,883.13
2023-03-21T18:46:47.059Z,884.55
2023-03-21T18:52:04.590Z,884.38
2023-03-21T18:54:31.395Z,881.08
2023-03-21T18:57:33.737Z,883.42
2023-03-21T18:59:45.193Z,879.20
2023-03-21T19:02:13.866Z,882.90
2023-03-21T19:04:40.870Z,883.80
2023-03-21T19:07:08.497Z,881.72
2023-03-21T19:09:58.102Z,882.17
2023-03-21T19:12:23.612Z,885.03
2023-03-21T19:14:50.358Z,881.33
2023-03-21T19:18:14.363Z,881.75
2023-03-21T19:20:05.587Z,884.22
2023-03-21T19:22:32.206Z,878.00
2023-03-21T19:24:58.861Z,878.15
2023-03-21T19:27:25.782Z,872.78
2023-03-21T19:30:10.919Z,877.35
2023-03-21T19:32:40.575Z,876.10
2023-03-21T19:35:07.500Z,878.33
2023-03-21T19:37:36.226Z,878.72
2023-03-21T19:40:05.518Z,875.33
2023-03-21T19:42:32.525Z,874.25
2023-03-21T19:44:59.361Z,873.85
2023-03-21T19:47:26.279Z,887.15
2023-03-21T19:52:40.950Z,881.25
2023-03-21T19:55:08.327Z,878.83
2023-03-21T19:57:35.319Z,879.70
2023-03-21T20:00:02.278Z,883.67
2023-03-21T20:02:37.127Z,878.38
2023-03-21T20:05:06.653Z,868.33
2023-03-21T20:07:33.479Z,871.80
2023-03-21T20:10:00.609Z,865.80
2023-03-21T20:12:27.534Z,873.70
2023-03-21T20:15:07.000Z,871.30
2023-03-21T20:17:41.865Z,870.53
2023-03-21T20:20:10.127Z,878.97
2023-03-21T20:23:05.112Z,856.40
2023-03-21T20:25:23.567Z,864.77
2023-03-21T20:28:07.314Z,858.33
2023-03-21T20:30:37.157Z,853.92
2023-03-21T20:33:04.305Z,855.40
2023-03-21T20:36:16.485Z,845.85
2023-03-21T20:38:20.443Z,844.97
2023-03-21T20:40:47.967Z,841.92
2023-03-21T20:44:02.196Z,841.72
2023-03-21T20:46:03.923Z,843.58
2023-03-21T20:48:31.056Z,841.23
2023-03-21T20:51:25.056Z,850.03
2023-03-21T20:53:48.927Z,852.25
2023-03-21T20:56:15.881Z,851.97
2023-03-21T20:59:04.582Z,838.20
2023-03-21T21:01:29.213Z,850.75
2023-03-21T21:03:57.510Z,844.67
2023-03-21T21:06:24.451Z,845.47
2023-03-21T21:08:51.315Z,838.57
2023-03-21T21:12:02.965Z,853.83
2023-03-21T21:14:05.451Z,845.95
2023-03-21T21:16:32.748Z,840.65
2023-03-21T21:18:59.455Z,853.63
2023-03-21T21:21:27.658Z,842.08
2023-03-21T21:23:54.355Z,838.83
2023-03-21T21:26:21.006Z,834.43
2023-03-21T21:28:47.805Z,832.85
2023-03-21T21:31:16.787Z,835.42
2023-03-21T21:33:49.994Z,833.42
2023-03-21T21:36:17.289Z,834.30
2023-03-21T21:38:43.980Z,839.35
2023-03-21T21:41:17.619Z,842.22
2023-03-21T21:43:44.241Z,835.88
2023-03-21T21:46:11.523Z,837.85
2023-03-21T21:48:40.017Z,831.92
2023-03-21T21:51:07.157Z,832.08
2023-03-21T21:53:33.754Z,837.85
2023-03-21T21:56:03.564Z,833.97
2023-03-21T21:58:33.614Z,834.53
2023-03-21T22:01:01.853Z,834.40
2023-03-21T22:03:36.397Z,829.70
2023-03-21T22:06:04.570Z,824.40
2023-03-21T22:08:31.470Z,820.92
2023-03-21T22:11:00.635Z,831.63
2023-03-21T22:13:27.745Z,823.60
2023-03-21T22:15:55.327Z,825.60
2023-03-21T22:18:22.631Z,815.83
2023-03-21T22:20:51.104Z,825.55
2023-03-21T22:23:19.331Z,818.80
2023-03-21T22:25:51.286Z,822.95
2023-03-21T22:28:21.993Z,822.55
2023-03-21T22:30:48.875Z,819.75
2023-03-21T22:33:15.695Z,830.78
2023-03-21T22:35:42.387Z,825.83
2023-03-21T22:38:09.106Z,818.30
2023-03-21T22:40:35.851Z,830.03
2023-03-21T22:43:02.821Z,826.40
2023-03-21T22:45:29.561Z,819.05
2023-03-21T22:47:56.313Z,826.97
2023-03-21T22:50:22.957Z,824.10
2023-03-21T22:52:49.617Z,832.78
2023-03-21T22:55:16.351Z,827.97
2023-03-21T22:57:50.867Z,834.80
2023-03-21T23:00:18.384Z,832.00
2023-03-21T23:02:45.262Z,826.70
2023-03-21T23:05:12.095Z,827.80
2023-03-21T23:07:38.812Z,828.67
2023-03-21T23:10:07.669Z,828.75
2023-03-21T23:12:34.549Z,829.45
2023-03-21T23:15:02.342Z,830.80
2023-03-21T23:17:29.286Z,830.40
2023-03-21T23:19:56.186Z,827.72
2023-03-21T23:22:22.836Z,828.30
2023-03-21T23:24:49.598Z,828.25
2023-03-21T23:27:18.048Z,826.92
2023-03-21T23:29:45.328Z,832.73
2023-03-21T23:32:11.980Z,829.58
2023-03-21T23:34:38.608Z,824.55
2023-03-21T23:37:06.749Z,830.63
2023-03-21T23:39:33.768Z,825.33
2023-03-21T23:42:00.799Z,829.78
2023-03-21T23:44:27.642Z,827.15
2023-03-21T23:46:54.680Z,827.63
2023-03-21T23:49:21.374Z,822.72
2023-03-21T23:51:48.046Z,819.80
2023-03-21T23:54:14.923Z,819.78
2023-03-21T23:56:42.047Z,822.55
2023-03-21T23:59:08.892Z,811.80
